Time;durP1;ratioP1;P1;durP2;ratioP2;P2;SDS_P1;SDS_P2;PMS_P1;PMS_P2;Temp;Humidity;BMP_temperature;BMP_pressure;BME280_temperature;BME280_humidity;BME280_pressure;Samples;Min_cycle;Max_cycle;Signal;HPM_P1;HPM_P2
2022/10/18 00:01:07;;;;;;;7.97;3.17;;;17.40;99.90;;;;;;4993272;28;20042;-74
2022/10/18 00:03:34;;;;;;;8.27;3.15;;;17.40;99.90;;;;;;4992516;28;20037;-73
2022/10/18 00:06:00;;;;;;;7.03;3.25;;;17.30;99.90;;;;;;4975206;28;20018;-73
2022/10/18 00:08:27;;;;;;;7.28;3.47;;;17.30;99.90;;;;;;4992713;28;20033;-73
2022/10/18 00:10:53;;;;;;;6.45;2.88;;;17.20;99.90;;;;;;4975715;28;20022;-73
2022/10/18 00:13:19;;;;;;;3.65;2.05;;;17.20;99.90;;;;;;4975014;28;20038;-73
2022/10/18 00:15:58;;;;;;;7.20;2.45;;;17.20;99.90;;;;;;4975088;28;20022;-72
2022/10/18 00:18:24;;;;;;;4.45;2.45;;;17.10;99.90;;;;;;4992858;28;20085;-73
2022/10/18 00:21:06;;;;;;;4.97;2.40;;;17.10;99.90;;;;;;4992488;28;20034;-73
2022/10/18 00:23:33;;;;;;;6.85;2.85;;;17.10;99.90;;;;;;4992233;28;20368;-74
2022/10/18 00:26:04;;;;;;;5.70;3.10;;;17.10;99.90;;;;;;4975199;28;20038;-74
2022/10/18 00:28:32;;;;;;;4.22;2.45;;;17.10;99.90;;;;;;4975056;28;20109;-74
2022/10/18 00:31:14;;;;;;;13.20;3.45;;;17.10;99.90;;;;;;4992983;28;20035;-74
2022/10/18 00:33:41;;;;;;;13.75;2.80;;;17.00;99.90;;;;;;4975466;28;20038;-74
2022/10/18 00:36:07;;;;;;;8.77;2.85;;;17.00;99.90;;;;;;4992448;28;20057;-74
2022/10/18 00:38:33;;;;;;;6.03;2.97;;;17.00;99.90;;;;;;4974419;28;20758;-74
2022/10/18 00:40:58;;;;;;;4.80;2.50;;;17.00;99.90;;;;;;4992083;28;20073;-74
2022/10/18 00:43:24;;;;;;;8.40;2.95;;;17.00;99.90;;;;;;4992407;28;20074;-73
2022/10/18 00:45:50;;;;;;;9.38;4.10;;;17.00;99.90;;;;;;4992521;28;20038;-74
2022/10/18 00:48:19;;;;;;;6.90;2.95;;;17.00;99.90;;;;;;4992266;28;20069;-74
2022/10/18 00:50:47;;;;;;;5.03;2.80;;;17.10;99.90;;;;;;4992012;28;20033;-74
2022/10/18 00:53:18;;;;;;;4.75;2.40;;;17.00;99.90;;;;;;4973910;28;20076;-74
2022/10/18 00:55:45;;;;;;;6.22;2.58;;;16.90;99.90;;;;;;4973561;28;20390;-74
2022/10/18 00:58:16;;;;;;;11.02;3.15;;;17.00;99.90;;;;;;4974700;28;20104;-74
2022/10/18 01:00:41;;;;;;;5.60;3.00;;;17.00;99.90;;;;;;4974987;28;20074;-72
2022/10/18 01:03:08;;;;;;;15.52;2.35;;;17.00;99.90;;;;;;4974150;28;20568;-73
2022/10/18 01:05:46;;;;;;;6.32;2.50;;;17.00;99.90;;;;;;4985729;28;20324;-73
2022/10/18 01:09:06;;;;;;;6.15;2.58;;;17.00;99.90;;;;;;4992155;28;20026;-74
2022/10/18 01:12:01;;;;;;;5.35;2.70;;;17.10;99.90;;;;;;4982234;28;20060;-73
2022/10/18 01:14:54;;;;;;;4.47;2.33;;;17.00;99.90;;;;;;4990523;28;20026;-73
2022/10/18 01:18:01;;;;;;;9.57;2.50;;;17.10;99.90;;;;;;4956005;28;20030;-74
2022/10/18 01:21:03;;;;;;;5.60;2.78;;;17.10;99.90;;;;;;4970991;28;20023;-73
2022/10/18 01:24:02;;;;;;;4.60;2.85;;;17.10;99.90;;;;;;4973633;28;20140;-74
2022/10/18 01:26:57;;;;;;;10.00;2.83;;;17.20;99.90;;;;;;4991669;28;20398;-74
2022/10/18 01:29:43;;;;;;;10.75;2.33;;;17.30;99.90;;;;;;4991034;28;20042;-71
2022/10/18 01:32:17;;;;;;;3.97;2.30;;;17.30;99.90;;;;;;4973996;28;20033;-74
2022/10/18 01:34:46;;;;;;;6.15;2.58;;;17.40;99.90;;;;;;4974665;28;20069;-74
2022/10/18 01:37:16;;;;;;;7.03;1.95;;;17.40;99.90;;;;;;4973766;28;20109;-74
2022/10/18 01:39:46;;;;;;;6.63;2.38;;;17.40;99.90;;;;;;4974097;28;20030;-74
2022/10/18 01:42:17;;;;;;;6.00;2.60;;;17.30;99.90;;;;;;4990968;28;20045;-74
2022/10/18 01:44:44;;;;;;;;;;;17.40;99.90;;;;;;4990791;28;20046;-72
2022/10/18 01:47:13;;;;;;;3.72;2.40;;;17.50;99.90;;;;;;4973645;28;19961;-73
2022/10/18 01:49:39;;;;;;;3.92;2.05;;;17.60;99.90;;;;;;4989523;28;20046;-72
2022/10/18 01:52:05;;;;;;;3.55;1.95;;;17.60;99.90;;;;;;4973823;28;20081;-72
2022/10/18 01:54:36;;;;;;;3.92;2.55;;;17.60;99.90;;;;;;4989305;28;20030;-72
2022/10/18 01:57:35;;;;;;;;;;;17.70;99.90;;;;;;4989543;28;20118;-72
2022/10/18 02:00:18;;;;;;;6.15;1.80;;;17.70;99.90;;;;;;4975043;28;19914;-72
2022/10/18 02:03:22;;;;;;;3.42;1.65;;;17.80;99.90;;;;;;4988746;28;20034;-72
2022/10/18 02:05:58;;;;;;;4.93;1.75;;;17.90;99.90;;;;;;4989829;28;20038;-72
2022/10/18 02:08:46;;;;;;;4.60;1.67;;;17.90;99.90;;;;;;4994201;28;20117;-72
2022/10/18 02:11:15;;;;;;;6.07;1.52;;;18.00;99.90;;;;;;4996688;28;20034;-72
2022/10/18 02:14:04;;;;;;;5.10;1.48;;;17.90;99.90;;;;;;4996221;28;20046;-72
2022/10/18 02:16:39;;;;;;;7.93;1.80;;;17.90;99.90;;;;;;4979466;28;20038;-72
2022/10/18 02:19:20;;;;;;;2.78;1.50;;;17.90;99.90;;;;;;4996388;28;20026;-72
2022/10/18 02:21:49;;;;;;;4.57;1.83;;;17.90;99.90;;;;;;4997795;28;20040;-72
2022/10/18 02:24:17;;;;;;;4.32;2.00;;;18.00;99.90;;;;;;4995450;28;20039;-72
2022/10/18 02:26:43;;;;;;;3.58;1.92;;;18.10;99.90;;;;;;4995729;28;20022;-73
2022/10/18 02:29:09;;;;;;;2.65;1.77;;;18.10;99.90;;;;;;4996016;28;20089;-72
2022/10/18 02:31:47;;;;;;;3.55;1.10;;;18.10;99.90;;;;;;4996125;28;20034;-72
2022/10/18 02:34:34;;;;;;;3.15;1.98;;;18.20;99.90;;;;;;4996124;28;20034;-72
2022/10/18 02:37:01;;;;;;;2.47;1.25;;;18.10;99.90;;;;;;4997353;28;20035;-72
2022/10/18 02:39:39;;;;;;;3.13;1.40;;;18.00;99.90;;;;;;4996032;28;20077;-72
2022/10/18 02:42:05;;;;;;;3.78;1.33;;;18.00;99.90;;;;;;4980546;28;20036;-72
2022/10/18 02:44:36;;;;;;;6.15;1.95;;;17.90;99.90;;;;;;4995318;28;20030;-72
2022/10/18 02:47:03;;;;;;;6.40;1.67;;;17.90;99.90;;;;;;4996985;28;20433;-72
2022/10/18 02:49:29;;;;;;;3.85;2.35;;;17.90;99.90;;;;;;4996741;28;20121;-72
2022/10/18 02:51:55;;;;;;;6.88;2.08;;;17.90;99.90;;;;;;4996794;28;20169;-72
2022/10/18 02:54:22;;;;;;;4.25;1.75;;;17.90;99.90;;;;;;4979055;28;20065;-72
2022/10/18 02:56:47;;;;;;;3.60;1.60;;;18.00;99.90;;;;;;4996020;28;20031;-72
2022/10/18 02:59:13;;;;;;;3.85;1.83;;;18.00;99.90;;;;;;4996204;28;20034;-72
2022/10/18 03:01:39;;;;;;;3.15;2.00;;;18.00;99.90;;;;;;4979556;28;20038;-72
2022/10/18 03:04:05;;;;;;;4.25;2.28;;;18.00;99.90;;;;;;4992495;28;20479;-72
2022/10/18 03:06:32;;;;;;;7.13;2.03;;;17.80;99.90;;;;;;5006703;28;20029;-73
2022/10/18 03:08:58;;;;;;;10.65;2.50;;;17.90;99.90;;;;;;4978771;28;20026;-72
2022/10/18 03:11:23;;;;;;;4.53;2.10;;;18.00;99.90;;;;;;4979294;28;20044;-72
2022/10/18 03:13:49;;;;;;;7.80;1.92;;;18.00;99.90;;;;;;4994758;28;20474;-72
2022/10/18 03:16:16;;;;;;;6.18;2.47;;;18.00;99.90;;;;;;4981975;28;20043;-73
2022/10/18 03:18:42;;;;;;;2.45;1.45;;;17.90;99.90;;;;;;4975380;28;20491;-73
2022/10/18 03:21:08;;;;;;;3.38;2.17;;;17.80;99.90;;;;;;4991572;28;20042;-73
2022/10/18 03:23:34;;;;;;;4.72;3.88;;;17.80;99.90;;;;;;4975605;28;20033;-72
2022/10/18 03:26:01;;;;;;;5.32;1.80;;;17.80;99.90;;;;;;4992672;28;20022;-72
2022/10/18 03:28:26;;;;;;;4.57;2.22;;;17.70;99.90;;;;;;4991820;28;20038;-72
2022/10/18 03:30:52;;;;;;;5.68;1.90;;;17.70;99.90;;;;;;4993126;28;20462;-72
2022/10/18 03:33:18;;;;;;;2.42;1.48;;;17.80;99.90;;;;;;4992980;28;20697;-72
2022/10/18 03:35:44;;;;;;;7.18;2.15;;;17.90;99.90;;;;;;4993282;28;20474;-74
2022/10/18 03:38:09;;;;;;;6.65;3.40;;;17.80;99.90;;;;;;4975291;28;20038;-72
2022/10/18 03:40:35;;;;;;;5.60;2.03;;;17.80;99.90;;;;;;4974124;28;20069;-73
2022/10/18 03:43:00;;;;;;;11.23;2.95;;;17.80;99.90;;;;;;4972154;28;20376;-72
2022/10/18 03:45:26;;;;;;;7.80;2.33;;;17.80;99.90;;;;;;4973733;28;20027;-72
2022/10/18 03:47:52;;;;;;;4.15;2.10;;;17.70;99.90;;;;;;4972453;28;20042;-73
2022/10/18 03:50:18;;;;;;;12.00;2.33;;;17.70;99.90;;;;;;4973592;28;20031;-73
2022/10/18 03:52:44;;;;;;;3.75;2.00;;;17.70;99.90;;;;;;4972804;28;20038;-73
2022/10/18 03:55:10;;;;;;;2.78;1.63;;;17.60;99.90;;;;;;4973087;28;20027;-73
2022/10/18 03:57:35;;;;;;;4.88;1.63;;;17.50;99.90;;;;;;4969130;28;20451;-72
2022/10/18 04:00:02;;;;;;;6.97;1.90;;;17.50;99.90;;;;;;4973543;28;20033;-73
2022/10/18 04:02:28;;;;;;;7.47;2.17;;;17.70;99.90;;;;;;4972457;28;20101;-73
2022/10/18 04:04:53;;;;;;;9.05;1.70;;;17.80;99.90;;;;;;4983613;28;20518;-73
2022/10/18 04:07:19;;;;;;;4.85;1.98;;;17.80;99.90;;;;;;5004169;28;20054;-76
2022/10/18 04:09:45;;;;;;;5.85;2.15;;;17.90;99.90;;;;;;4991043;28;20479;-75
2022/10/18 04:12:10;;;;;;;4.47;1.88;;;17.80;99.90;;;;;;4993115;28;20084;-76
2022/10/18 04:14:36;;;;;;;6.85;1.92;;;17.90;99.90;;;;;;4992445;28;20153;-74
2022/10/18 04:17:03;;;;;;;3.30;1.38;;;17.90;99.90;;;;;;4993017;28;20563;-75
2022/10/18 04:19:29;;;;;;;5.18;1.73;;;17.90;99.90;;;;;;4992727;28;20030;-74
2022/10/18 04:21:55;;;;;;;9.43;3.22;;;17.80;99.90;;;;;;4992851;28;20113;-74
2022/10/18 04:24:20;;;;;;;4.55;1.88;;;17.70;99.90;;;;;;4991221;28;20038;-76
2022/10/18 04:26:46;;;;;;;5.38;2.03;;;17.70;99.90;;;;;;4992831;28;20882;-74
2022/10/18 04:29:12;;;;;;;8.27;2.40;;;17.70;99.90;;;;;;4992454;28;20037;-74
2022/10/18 04:31:37;;;;;;;33.53;15.98;;;17.70;99.90;;;;;;4992508;28;20538;-75
2022/10/18 04:34:03;;;;;;;15.93;8.77;;;17.60;99.90;;;;;;4992397;28;20052;-74
2022/10/18 04:36:30;;;;;;;33.42;14.65;;;17.60;99.90;;;;;;4990890;28;20034;-74
2022/10/18 04:38:56;;;;;;;12.85;7.43;;;17.60;99.90;;;;;;4992399;28;20389;-75
2022/10/18 04:41:21;;;;;;;27.55;9.90;;;17.50;99.90;;;;;;4992355;28;20030;-75
2022/10/18 04:43:47;;;;;;;5.28;3.50;;;17.50;99.90;;;;;;4991860;28;20057;-76
2022/10/18 04:46:13;;;;;;;10.73;5.18;;;17.40;99.90;;;;;;4991948;28;20058;-75
2022/10/18 04:48:39;;;;;;;9.77;3.50;;;17.40;99.90;;;;;;4992393;28;20065;-75
2022/10/18 04:51:05;;;;;;;8.40;2.50;;;17.40;99.90;;;;;;4990521;28;20109;-75
2022/10/18 04:53:31;;;;;;;4.38;2.20;;;17.40;99.90;;;;;;4991972;28;20030;-74
2022/10/18 04:55:57;;;;;;;9.88;2.95;;;17.40;99.90;;;;;;5007145;28;20038;-75
2022/10/18 04:58:23;;;;;;;3.70;2.05;;;17.50;99.90;;;;;;5007379;28;20441;-77
2022/10/18 05:00:49;;;;;;;6.57;2.60;;;17.50;99.90;;;;;;4992054;28;20023;-75
2022/10/18 05:03:16;;;;;;;5.15;1.85;;;17.40;99.90;;;;;;5006556;28;20089;-78
2022/10/18 05:05:42;;;;;;;6.25;2.53;;;17.30;99.90;;;;;;5006387;28;20032;-77
2022/10/18 05:08:07;;;;;;;3.65;2.03;;;17.30;99.90;;;;;;5006784;28;20022;-75
2022/10/18 05:10:33;;;;;;;4.57;2.05;;;17.20;99.90;;;;;;5006590;28;20041;-75
2022/10/18 05:12:59;;;;;;;4.22;2.15;;;17.30;99.90;;;;;;4990205;28;20034;-76
2022/10/18 05:15:25;;;;;;;16.92;8.45;;;17.30;99.90;;;;;;4988698;28;20125;-76
2022/10/18 05:17:50;;;;;;;3.83;2.00;;;17.20;99.90;;;;;;4991375;28;20022;-76
2022/10/18 05:20:16;;;;;;;8.73;2.17;;;17.10;99.90;;;;;;4991575;28;20375;-76
2022/10/18 05:22:42;;;;;;;6.35;2.72;;;17.10;99.90;;;;;;4987440;28;20049;-76
2022/10/18 05:25:08;;;;;;;9.35;2.63;;;17.10;99.90;;;;;;4991052;28;20034;-77
2022/10/18 05:27:34;;;;;;;6.28;3.30;;;17.10;99.90;;;;;;4962011;28;20077;-77
2022/10/18 05:30:00;;;;;;;4.32;2.03;;;17.20;99.90;;;;;;4976903;28;20170;-76
2022/10/18 05:32:26;;;;;;;5.82;1.95;;;17.10;99.90;;;;;;4954253;28;20041;-74
2022/10/18 05:34:52;;;;;;;4.22;2.35;;;17.00;99.90;;;;;;4977341;28;20042;-73
2022/10/18 05:37:17;;;;;;;4.90;2.38;;;17.00;99.90;;;;;;4990928;28;20049;-73
2022/10/18 05:39:43;;;;;;;4.20;2.65;;;17.10;99.90;;;;;;4991359;28;20040;-73
2022/10/18 05:42:09;;;;;;;9.63;3.22;;;17.00;99.90;;;;;;4990380;28;20057;-73
2022/10/18 05:44:35;;;;;;;6.50;2.20;;;16.80;99.90;;;;;;4990473;28;20058;-73
2022/10/18 05:47:00;;;;;;;4.30;2.25;;;16.90;99.90;;;;;;4990990;28;20026;-73
2022/10/18 05:49:26;;;;;;;5.90;1.92;;;16.80;99.90;;;;;;4991197;28;20032;-73
2022/10/18 05:51:52;;;;;;;10.60;2.45;;;16.80;99.90;;;;;;4991082;28;20106;-73
2022/10/18 05:54:19;;;;;;;12.10;2.72;;;16.80;99.90;;;;;;4990915;28;20057;-74
2022/10/18 05:56:45;;;;;;;5.82;2.53;;;16.80;99.90;;;;;;4990883;28;20033;-74
2022/10/18 05:59:12;;;;;;;11.93;4.80;;;16.90;99.90;;;;;;4991335;28;20040;-74
2022/10/18 06:01:39;;;;;;;7.53;2.35;;;16.90;99.90;;;;;;4989327;28;20023;-74
2022/10/18 06:04:06;;;;;;;18.23;3.38;;;16.90;99.90;;;;;;4969982;28;20038;-74
2022/10/18 06:06:32;;;;;;;5.95;2.40;;;16.90;99.90;;;;;;4989423;28;20111;-74
2022/10/18 06:08:58;;;;;;;4.78;2.53;;;16.80;99.90;;;;;;4990850;28;20042;-74
2022/10/18 06:11:25;;;;;;;6.13;2.20;;;16.80;99.90;;;;;;4990640;28;20060;-74
2022/10/18 06:13:51;;;;;;;6.78;2.70;;;16.70;99.90;;;;;;4990839;28;20045;-74
2022/10/18 06:16:21;;;;;;;6.00;2.78;;;16.70;99.90;;;;;;4990259;28;20477;-74
2022/10/18 06:18:53;;;;;;;11.57;2.65;;;16.80;99.90;;;;;;4989284;28;20061;-74
2022/10/18 06:21:19;;;;;;;11.20;3.63;;;16.80;99.90;;;;;;4989753;28;20038;-74
2022/10/18 06:23:54;;;;;;;6.45;2.45;;;16.80;99.90;;;;;;4989305;28;20474;-74
2022/10/18 06:26:21;;;;;;;13.73;2.67;;;16.90;99.90;;;;;;4989908;28;20127;-74
2022/10/18 06:28:47;;;;;;;10.23;3.78;;;16.90;99.90;;;;;;4989216;28;20110;-73
2022/10/18 06:31:13;;;;;;;8.43;3.72;;;17.00;99.90;;;;;;4990785;28;20149;-74
2022/10/18 06:33:39;;;;;;;10.60;3.33;;;17.10;99.90;;;;;;4990277;28;20030;-73
2022/10/18 06:36:18;;;;;;;11.40;3.58;;;17.00;99.90;;;;;;4989397;28;20080;-73
2022/10/18 06:38:44;;;;;;;8.95;3.95;;;17.00;99.90;;;;;;5005138;28;20117;-74
2022/10/18 06:41:10;;;;;;;13.70;4.30;;;17.00;99.90;;;;;;4990682;28;20117;-75
2022/10/18 06:43:36;;;;;;;7.55;2.72;;;17.00;99.90;;;;;;4990263;28;20081;-75
2022/10/18 06:46:05;;;;;;;6.68;2.60;;;17.00;99.90;;;;;;4990663;28;20502;-74
2022/10/18 06:48:32;;;;;;;5.18;2.70;;;17.10;99.90;;;;;;4990563;28;20034;-75
2022/10/18 06:51:01;;;;;;;8.10;2.75;;;17.10;99.90;;;;;;4990548;28;20030;-74
2022/10/18 06:53:35;;;;;;;14.63;2.72;;;17.20;99.90;;;;;;4990322;28;20438;-74
2022/10/18 06:56:07;;;;;;;5.68;2.42;;;17.20;99.90;;;;;;4993607;28;20037;-74
2022/10/18 06:58:34;;;;;;;16.20;3.55;;;17.20;99.90;;;;;;5009115;28;20035;-74
2022/10/18 07:01:07;;;;;;;5.10;2.63;;;17.20;99.90;;;;;;4992657;28;20502;-74
2022/10/18 07:03:34;;;;;;;7.45;3.30;;;17.20;99.90;;;;;;5008686;28;20620;-75
2022/10/18 07:06:05;;;;;;;13.02;3.22;;;17.30;99.90;;;;;;4992849;28;20037;-74
2022/10/18 07:08:32;;;;;;;7.40;2.85;;;17.20;99.90;;;;;;5008933;28;20030;-74
2022/10/18 07:10:58;;;;;;;9.32;2.55;;;17.10;99.90;;;;;;4993641;28;20045;-74
2022/10/18 07:13:26;;;;;;;15.10;4.38;;;17.10;99.90;;;;;;4993593;28;20124;-75
2022/10/18 07:16:14;;;;;;;6.78;2.83;;;17.20;99.90;;;;;;4992815;28;20465;-74
2022/10/18 07:18:43;;;;;;;6.30;3.40;;;17.10;99.90;;;;;;4992347;28;20042;-73
2022/10/18 07:21:12;;;;;;;30.55;4.20;;;17.20;99.90;;;;;;4992773;28;20034;-74
2022/10/18 07:23:42;;;;;;;6.63;1.85;;;17.10;99.90;;;;;;4992038;28;20049;-74
2022/10/18 07:26:35;;;;;;;6.30;2.90;;;17.00;99.90;;;;;;4992693;28;20034;-73
2022/10/18 07:29:06;;;;;;;10.10;2.85;;;17.00;99.90;;;;;;5005111;28;20057;-74
2022/10/18 07:31:33;;;;;;;4.72;2.22;;;16.80;99.90;;;;;;4993732;28;20110;-74
2022/10/18 07:33:59;;;;;;;5.97;3.42;;;16.80;99.90;;;;;;4992557;28;20453;-74
2022/10/18 07:36:25;;;;;;;6.68;2.53;;;16.80;99.90;;;;;;4992969;28;20030;-74
2022/10/18 07:38:52;;;;;;;10.25;2.80;;;16.60;99.90;;;;;;5008386;28;20395;-74
2022/10/18 07:41:18;;;;;;;19.85;2.45;;;16.70;99.90;;;;;;5008543;28;20038;-74
2022/10/18 07:43:49;;;;;;;22.13;3.95;;;16.70;99.90;;;;;;4992581;28;20041;-74
2022/10/18 07:46:16;;;;;;;12.38;3.40;;;16.80;99.90;;;;;;5007694;28;20026;-74
2022/10/18 07:48:42;;;;;;;13.57;3.70;;;16.90;99.90;;;;;;4992037;28;20100;-75
2022/10/18 07:51:09;;;;;;;8.85;2.70;;;17.00;99.90;;;;;;4992757;28;20501;-75
2022/10/18 07:53:35;;;;;;;7.07;3.53;;;17.00;99.90;;;;;;4974397;28;20033;-74
2022/10/18 07:56:05;;;;;;;7.70;3.65;;;17.10;99.90;;;;;;4986001;28;20394;-74
2022/10/18 07:58:32;;;;;;;14.30;3.67;;;17.30;99.90;;;;;;4989695;28;20103;-74
2022/10/18 08:01:03;;;;;;;8.20;4.05;;;17.30;99.90;;;;;;4984507;28;20031;-74
2022/10/18 08:03:29;;;;;;;;;;;17.40;99.90;;;;;;4971760;28;20173;-83
2022/10/18 08:05:54;;;;;;;8.20;3.95;;;17.40;99.90;;;;;;4986456;28;19992;-81
2022/10/18 08:08:22;;;;;;;8.32;3.67;;;17.40;99.90;;;;;;4992114;28;20049;-81
2022/10/18 08:10:48;;;;;;;7.55;3.65;;;17.20;99.90;;;;;;4991621;28;20073;-81
2022/10/18 08:13:14;;;;;;;11.50;5.05;;;17.30;99.90;;;;;;4992343;28;20041;-82
2022/10/18 08:15:40;;;;;;;7.95;3.63;;;17.40;99.90;;;;;;4987140;28;20038;-79
2022/10/18 08:18:06;;;;;;;13.32;4.95;;;17.30;99.90;;;;;;4971812;28;20035;-79
2022/10/18 08:20:32;;;;;;;5.93;2.75;;;17.10;99.90;;;;;;4971703;28;20030;-80
2022/10/18 08:22:58;;;;;;;6.82;3.45;;;17.20;99.90;;;;;;4972298;28;20039;-81
2022/10/18 08:25:24;;;;;;;12.27;4.32;;;17.10;99.90;;;;;;4973248;28;20022;-82
2022/10/18 08:27:50;;;;;;;11.35;3.55;;;17.10;99.90;;;;;;4972788;28;20033;-82
2022/10/18 08:30:16;;;;;;;8.95;3.13;;;17.10;99.90;;;;;;4998964;23;20086;-75
2022/10/18 08:32:42;;;;;;;7.07;3.75;;;17.00;99.90;;;;;;4991333;28;20037;-74
2022/10/18 08:35:08;;;;;;;9.65;4.25;;;17.10;99.90;;;;;;4990068;28;20042;-74
2022/10/18 08:37:33;;;;;;;16.38;3.95;;;17.00;99.90;;;;;;4992233;28;20042;-75
2022/10/18 08:39:59;;;;;;;8.50;4.32;;;17.00;99.90;;;;;;4991952;28;20474;-75
2022/10/18 08:42:40;;;;;;;8.52;3.83;;;17.00;99.90;;;;;;4990403;28;20112;-76
2022/10/18 08:45:09;;;;;;;5.38;3.45;;;17.00;99.90;;;;;;4991556;28;20034;-77
2022/10/18 08:47:40;;;;;;;8.30;3.85;;;17.00;99.90;;;;;;4991591;28;20038;-76
2022/10/18 08:50:22;;;;;;;8.80;4.57;;;17.00;99.90;;;;;;4974837;28;20054;-77
2022/10/18 08:53:15;;;;;;;13.43;4.00;;;17.00;99.90;;;;;;4970535;28;20118;-77
2022/10/18 08:55:51;;;;;;;13.43;3.97;;;17.20;99.90;;;;;;4971855;28;20022;-75
2022/10/18 08:58:29;;;;;;;12.02;6.78;;;17.10;99.90;;;;;;4970697;28;20102;-79
2022/10/18 09:01:15;;;;;;;12.23;3.80;;;17.20;99.90;;;;;;4973401;28;20027;-79
2022/10/18 09:04:06;;;;;;;8.20;3.85;;;17.30;99.90;;;;;;4972886;28;20031;-76
2022/10/18 09:06:52;;;;;;;8.20;4.18;;;17.40;99.90;;;;;;4991507;28;20026;-76
2022/10/18 09:09:27;;;;;;;10.02;4.57;;;17.40;99.90;;;;;;4991430;28;20038;-76
2022/10/18 09:12:30;;;;;;;10.73;4.25;;;17.60;99.90;;;;;;5004593;28;20036;-78
2022/10/18 09:15:18;;;;;;;7.78;3.75;;;17.70;99.90;;;;;;5010387;28;20062;-75
2022/10/18 09:18:26;;;;;;;6.20;3.65;;;18.00;99.90;;;;;;5009853;28;20034;-78
2022/10/18 09:21:10;;;;;;;8.40;3.47;;;18.10;99.90;;;;;;5009741;28;20131;-80
2022/10/18 09:24:21;;;;;;;6.88;3.75;;;17.90;99.90;;;;;;4989649;28;20113;-79
2022/10/18 09:26:52;;;;;;;8.68;3.70;;;18.10;99.90;;;;;;4970931;28;20033;-78
2022/10/18 09:29:47;;;;;;;9.55;3.95;;;18.20;99.90;;;;;;4970184;28;20632;-75
2022/10/18 09:32:43;;;;;;;15.05;5.97;;;18.20;99.90;;;;;;4970544;28;20043;-75
2022/10/18 09:35:53;;;;;;;8.20;4.13;;;18.20;99.90;;;;;;4980998;28;20089;-83
2022/10/18 09:38:23;;;;;;;11.45;3.95;;;18.30;99.90;;;;;;4973196;28;20034;-74
2022/10/18 09:41:07;;;;;;;7.78;4.57;;;18.30;99.90;;;;;;4988268;28;20121;-75
2022/10/18 09:43:45;;;;;;;6.32;4.05;;;18.40;99.90;;;;;;4957073;28;20136;-74
2022/10/18 09:46:12;;;;;;;11.25;4.63;;;18.60;99.90;;;;;;4971044;28;20030;-73
2022/10/18 09:48:52;;;;;;;14.35;6.28;;;18.70;99.90;;;;;;4972248;28;20053;-72
2022/10/18 09:51:23;;;;;;;8.93;4.78;;;18.70;99.90;;;;;;4972637;28;20474;-73
2022/10/18 09:54:02;;;;;;;6.03;4.00;;;18.70;99.90;;;;;;4988240;28;20165;-73
2022/10/18 09:56:51;;;;;;;10.38;4.75;;;18.90;99.90;;;;;;4988503;28;20077;-73
2022/10/18 09:59:46;;;;;;;10.32;4.75;;;19.00;99.90;;;;;;4987723;28;20034;-73
2022/10/18 10:02:21;;;;;;;10.23;4.80;;;19.10;99.90;;;;;;4988201;28;20056;-73
2022/10/18 10:04:48;;;;;;;11.77;4.38;;;19.10;99.90;;;;;;4986766;28;20039;-74
2022/10/18 10:07:23;;;;;;;9.80;4.70;;;19.10;99.90;;;;;;4985315;28;20031;-75
2022/10/18 10:10:15;;;;;;;7.05;3.50;;;19.50;99.90;;;;;;4969632;28;20086;-74
2022/10/18 10:12:41;;;;;;;8.68;4.20;;;19.50;99.90;;;;;;4985298;28;20026;-75
2022/10/18 10:15:22;;;;;;;9.32;3.95;;;19.40;99.90;;;;;;4980579;28;20030;-73
2022/10/18 10:18:17;;;;;;;8.70;4.40;;;19.60;99.90;;;;;;4989947;28;20042;-74
2022/10/18 10:20:59;;;;;;;11.88;4.45;;;19.40;99.90;;;;;;4989527;28;20289;-74
2022/10/18 10:23:43;;;;;;;13.18;3.65;;;19.90;99.90;;;;;;4989553;28;20129;-75
2022/10/18 10:26:30;;;;;;;6.72;4.25;;;20.00;99.90;;;;;;4989431;28;20035;-75
2022/10/18 10:28:56;;;;;;;15.25;4.70;;;19.50;99.90;;;;;;4992691;28;20027;-73
2022/10/18 10:31:25;;;;;;;12.73;4.25;;;19.50;99.90;;;;;;4994650;28;20018;-77
2022/10/18 10:34:13;;;;;;;6.63;3.90;;;19.50;99.90;;;;;;4994233;28;20045;-74
2022/10/18 10:36:51;;;;;;;11.00;3.85;;;19.80;99.90;;;;;;4993810;28;20038;-76
2022/10/18 10:39:20;;;;;;;9.50;2.97;;;20.30;99.90;;;;;;4994646;28;20414;-73
2022/10/18 10:41:59;;;;;;;6.68;2.63;;;20.90;99.90;;;;;;4992235;28;20042;-76
2022/10/18 10:44:30;;;;;;;10.35;3.10;;;21.30;99.90;;;;;;5007217;28;20033;-73
2022/10/18 10:46:57;;;;;;;12.85;4.47;;;21.90;99.90;;;;;;5008693;28;20117;-72
2022/10/18 10:49:38;;;;;;;9.52;3.50;;;22.30;99.90;;;;;;4995236;28;20038;-73
2022/10/18 10:52:05;;;;;;;23.10;9.10;;;21.70;99.90;;;;;;4974813;28;20031;-74
2022/10/18 10:54:37;;;;;;;9.18;5.30;;;21.20;99.90;;;;;;4972905;28;20039;-74
2022/10/18 10:57:11;;;;;;;8.95;3.33;;;21.40;99.90;;;;;;4972831;28;20038;-74
2022/10/18 10:59:53;;;;;;;8.90;2.70;;;21.90;99.90;;;;;;4957952;28;20035;-74
2022/10/18 11:02:32;;;;;;;10.30;2.78;;;21.50;99.90;;;;;;4972444;28;20068;-74
2022/10/18 11:05:29;;;;;;;5.70;3.13;;;21.50;99.90;;;;;;4992098;28;20125;-74
2022/10/18 11:08:01;;;;;;;5.18;2.13;;;20.90;99.90;;;;;;4972539;28;20082;-74
2022/10/18 11:10:33;;;;;;;8.82;3.65;;;20.90;99.90;;;;;;4978491;28;20095;-74
2022/10/18 11:13:41;;;;;;;10.57;2.45;;;20.60;99.90;;;;;;5011518;28;20029;-74
2022/10/18 11:16:25;;;;;;;5.57;2.63;;;20.60;99.90;;;;;;5012835;28;20061;-73
2022/10/18 11:18:52;;;;;;;4.63;2.45;;;20.10;99.90;;;;;;5011548;28;20037;-74
2022/10/18 11:21:26;;;;;;;4.53;2.15;;;20.10;99.90;;;;;;5011730;28;20666;-74
2022/10/18 11:23:53;;;;;;;3.70;2.33;;;20.10;99.90;;;;;;5011026;28;20093;-74
2022/10/18 11:27:05;;;;;;;4.30;2.25;;;20.30;99.90;;;;;;5011328;28;20060;-74
2022/10/18 11:29:53;;;;;;;7.82;2.42;;;20.20;99.90;;;;;;5011625;28;20033;-74
2022/10/18 11:32:33;;;;;;;8.38;2.30;;;20.10;99.90;;;;;;5011088;28;20040;-74
2022/10/18 11:35:37;;;;;;;7.82;2.45;;;20.00;99.90;;;;;;5003946;28;20033;-74
2022/10/18 11:38:37;;;;;;;4.00;1.67;;;20.00;99.90;;;;;;4979837;28;20042;-74
2022/10/18 11:41:34;;;;;;;3.42;1.92;;;19.90;99.90;;;;;;4972945;28;20043;-73
2022/10/18 11:44:25;;;;;;;4.65;2.03;;;20.00;99.90;;;;;;4973090;28;20027;-74
2022/10/18 11:47:10;;;;;;;5.53;1.67;;;20.00;99.90;;;;;;4972300;28;20138;-74
2022/10/18 11:50:47;;;;;;;4.75;2.08;;;20.10;99.90;;;;;;4971937;28;20439;-74
2022/10/18 11:53:51;;;;;;;2.85;1.58;;;20.00;99.90;;;;;;4964353;28;20072;-74
2022/10/18 11:56:37;;;;;;;3.42;1.60;;;20.30;99.90;;;;;;4961821;28;20035;-74
2022/10/18 11:59:37;;;;;;;5.13;1.88;;;20.30;99.90;;;;;;4973380;28;20031;-73
2022/10/18 12:03:01;;;;;;;2.15;1.27;;;20.40;99.90;;;;;;4973358;28;20027;-73
2022/10/18 12:05:28;;;;;;;5.47;2.25;;;20.40;99.90;;;;;;4983339;28;20038;-73
2022/10/18 12:08:06;;;;;;;5.35;2.15;;;20.30;99.90;;;;;;4990626;28;20022;-73
2022/10/18 12:10:34;;;;;;;5.50;1.90;;;20.20;99.90;;;;;;4983186;28;20541;-73
2022/10/18 12:13:06;;;;;;;5.55;2.83;;;20.10;99.90;;;;;;5010015;28;20034;-74
2022/10/18 12:15:38;;;;;;;7.10;2.58;;;20.00;99.90;;;;;;5011255;28;20486;-74
2022/10/18 12:18:13;;;;;;;3.13;2.20;;;20.00;99.90;;;;;;4992755;28;20034;-74
2022/10/18 12:20:47;;;;;;;6.15;2.70;;;20.00;99.90;;;;;;4991039;28;20038;-74
2022/10/18 12:23:46;;;;;;;5.70;2.45;;;20.00;99.90;;;;;;4990670;28;20478;-74
2022/10/18 12:26:12;;;;;;;5.35;2.47;;;20.10;99.90;;;;;;4989735;28;20042;-74
2022/10/18 12:28:54;;;;;;;7.10;2.85;;;20.10;99.90;;;;;;4989713;28;20527;-74
2022/10/18 12:31:45;;;;;;;4.45;2.63;;;20.20;99.90;;;;;;4990618;28;20034;-74
2022/10/18 12:34:20;;;;;;;7.47;2.53;;;20.30;99.90;;;;;;4989174;28;20494;-73
2022/10/18 12:37:24;;;;;;;4.15;2.50;;;20.30;99.90;;;;;;4986875;28;20471;-73
2022/10/18 12:40:12;;;;;;;3.40;2.50;;;20.40;99.90;;;;;;4972396;28;20178;-74
2022/10/18 12:42:48;;;;;;;6.65;2.40;;;20.40;99.90;;;;;;4972056;28;20403;-74
2022/10/18 12:45:33;;;;;;;5.32;2.00;;;20.30;99.90;;;;;;4971220;28;20046;-74
2022/10/18 12:48:04;;;;;;;7.60;1.92;;;20.20;99.90;;;;;;4970985;28;20023;-74
2022/10/18 12:50:40;;;;;;;4.97;1.90;;;20.20;99.90;;;;;;4971315;28;20023;-74
2022/10/18 12:53:11;;;;;;;3.50;1.90;;;20.00;99.90;;;;;;4970570;28;20113;-74
2022/10/18 12:55:39;;;;;;;2.38;1.30;;;20.10;99.90;;;;;;4972130;28;20031;-74
2022/10/18 12:58:31;;;;;;;3.30;1.58;;;20.10;99.90;;;;;;4971240;28;20043;-74
2022/10/18 13:01:04;;;;;;;2.15;1.10;;;20.20;99.90;;;;;;4972468;28;20491;-75
2022/10/18 13:03:58;;;;;;;2.03;1.35;;;20.30;99.90;;;;;;4970693;28;20038;-75
2022/10/18 13:06:24;;;;;;;8.95;2.45;;;20.20;99.90;;;;;;4990624;28;20042;-75
2022/10/18 13:09:17;;;;;;;7.72;1.75;;;20.30;99.90;;;;;;4991626;28;20429;-75
2022/10/18 13:11:42;;;;;;;2.05;1.40;;;20.50;99.90;;;;;;5004299;28;20486;-75
2022/10/18 13:14:34;;;;;;;4.57;2.00;;;20.60;99.90;;;;;;4998726;28;20046;-75
2022/10/18 13:17:42;;;;;;;1.73;0.90;;;20.80;99.90;;;;;;4991153;28;20037;-75
2022/10/18 13:20:39;;;;;;;7.88;1.70;;;20.90;99.90;;;;;;4989999;28;20038;-73